createdAt,value
2016-09-13T00:00:01.320Z,22.48
2016-09-13T00:01:01.303Z,22.5
2016-09-13T00:02:01.282Z,22.47
2016-09-13T00:03:01.277Z,22.38
2016-09-13T00:04:01.249Z,22.43
2016-09-13T00:05:01.232Z,22.41
2016-09-13T00:06:01.214Z,22.41
2016-09-13T00:07:01.193Z,22.43
2016-09-13T00:08:01.175Z,22.44
2016-09-13T00:09:01.158Z,22.43
2016-09-13T00:10:01.143Z,22.41
2016-09-13T00:11:01.123Z,22.44
2016-09-13T00:12:01.105Z,22.41
2016-09-13T00:13:01.087Z,22.44
2016-09-13T00:14:01.068Z,22.36
2016-09-13T00:15:01.050Z,22.36
2016-09-13T00:16:01.035Z,22.44
2016-09-13T00:17:01.017Z,22.39
2016-09-13T00:18:01.006Z,22.36
2016-09-13T00:19:00.982Z,22.3
2016-09-13T00:20:00.963Z,22.33
2016-09-13T00:21:00.946Z,22.43
2016-09-13T00:22:00.927Z,22.33
2016-09-13T00:23:00.910Z,22.3
2016-09-13T00:24:00.893Z,22.28
2016-09-13T00:25:00.873Z,22.28
2016-09-13T00:26:00.860Z,22.28
2016-09-13T00:27:00.885Z,22.3
2016-09-13T00:28:00.818Z,22.28
2016-09-13T00:29:00.806Z,22.28
2016-09-13T00:30:00.782Z,22.25
2016-09-13T00:31:00.767Z,22.23
2016-09-13T00:32:00.748Z,22.25
2016-09-13T00:33:00.736Z,22.3
2016-09-13T00:34:00.710Z,22.22
2016-09-13T00:35:00.691Z,22.17
2016-09-13T00:36:00.684Z,22.11
2016-09-13T00:37:00.658Z,22.18
2016-09-13T00:38:00.639Z,22.18
2016-09-13T00:39:00.659Z,22.2
2016-09-13T00:40:00.599Z,22.23
2016-09-13T00:41:00.586Z,22.14
2016-09-13T00:42:00.570Z,22.14
2016-09-13T00:43:00.550Z,22.1
2016-09-13T00:44:00.533Z,22.11
2016-09-13T00:45:00.512Z,22.18
2016-09-13T00:46:00.497Z,22.17
2016-09-13T00:47:00.476Z,22.14
2016-09-13T00:48:00.463Z,22.13
2016-09-13T00:49:00.443Z,22.15
2016-09-13T00:50:00.436Z,22.06
2016-09-13T00:51:00.405Z,22.14
2016-09-13T00:52:00.388Z,22.04
2016-09-13T00:53:00.364Z,22.1
2016-09-13T00:54:00.350Z,22.04
2016-09-13T00:55:00.333Z,22.02
2016-09-13T00:56:00.320Z,22.06
2016-09-13T00:57:00.299Z,22.02
2016-09-13T00:58:00.279Z,22.04
2016-09-13T00:59:00.267Z,22.06
2016-09-13T01:00:00.244Z,22.04
2016-09-13T01:01:00.227Z,21.95
2016-09-13T01:02:00.209Z,22.02
2016-09-13T01:03:00.189Z,21.91
2016-09-13T01:04:00.177Z,21.93
2016-09-13T01:05:00.153Z,21.96
2016-09-13T01:06:00.136Z,21.96
2016-09-13T01:07:00.114Z,21.88
2016-09-13T01:08:00.104Z,21.89
2016-09-13T01:09:00.084Z,21.93
2016-09-13T01:10:00.063Z,21.85
2016-09-13T01:11:00.046Z,21.83
2016-09-13T01:12:00.036Z,21.8
2016-09-13T01:13:00.004Z,21.83
2016-09-13T01:13:59.990Z,21.83
2016-09-13T01:14:59.973Z,21.82
2016-09-13T01:15:59.958Z,21.79
2016-09-13T01:16:59.940Z,21.77
2016-09-13T01:17:59.920Z,21.79
2016-09-13T01:18:59.897Z,21.72
2016-09-13T01:19:59.883Z,21.79
2016-09-13T01:20:59.864Z,21.75
2016-09-13T01:21:59.846Z,21.79
2016-09-13T01:22:59.822Z,21.79
2016-09-13T01:23:59.808Z,21.7
2016-09-13T01:24:59.788Z,21.76
2016-09-13T01:25:59.777Z,21.75
2016-09-13T01:26:59.751Z,21.72
2016-09-13T01:27:59.734Z,21.75
2016-09-13T01:28:59.718Z,21.76
2016-09-13T01:29:59.698Z,21.76
2016-09-13T01:30:59.683Z,21.73
2016-09-13T01:31:59.663Z,21.72
2016-09-13T01:32:59.643Z,21.79
2016-09-13T01:33:59.630Z,21.76
2016-09-13T01:34:59.602Z,21.7
2016-09-13T01:35:59.597Z,21.72
2016-09-13T01:36:59.580Z,21.73
2016-09-13T01:37:59.554Z,21.75
2016-09-13T01:38:59.546Z,21.73
2016-09-13T01:39:59.518Z,21.72
2016-09-13T01:40:59.499Z,21.76
2016-09-13T01:41:59.477Z,21.75
2016-09-13T01:42:59.461Z,21.72
2016-09-13T01:43:59.443Z,21.72
2016-09-13T01:44:59.475Z,21.73
2016-09-13T01:45:59.406Z,21.75
2016-09-13T01:46:59.386Z,21.73
2016-09-13T01:47:59.368Z,21.79
2016-09-13T01:48:59.356Z,21.75
2016-09-13T01:49:59.333Z,21.73
2016-09-13T01:50:59.315Z,21.79
2016-09-13T01:51:59.296Z,21.79
2016-09-13T01:52:59.282Z,21.75
2016-09-13T01:53:59.266Z,21.77
2016-09-13T01:54:59.242Z,21.8
2016-09-13T01:55:59.226Z,21.8
2016-09-13T01:56:59.204Z,21.76
2016-09-13T01:57:59.187Z,21.75
2016-09-13T01:58:59.181Z,21.76
2016-09-13T01:59:59.152Z,21.75
2016-09-13T02:00:59.134Z,21.73
2016-09-13T02:01:59.113Z,21.75
2016-09-13T02:02:59.103Z,21.7
2016-09-13T02:03:59.085Z,21.73
2016-09-13T02:04:59.057Z,21.73
2016-09-13T02:05:59.042Z,21.67
2016-09-13T02:06:59.022Z,21.7
2016-09-13T02:07:59.011Z,21.75
2016-09-13T02:08:58.988Z,21.69
2016-09-13T02:09:58.973Z,21.72
2016-09-13T02:10:58.949Z,21.73
2016-09-13T02:11:58.928Z,21.72
2016-09-13T02:12:58.913Z,21.66
2016-09-13T02:13:58.897Z,21.67
2016-09-13T02:14:58.878Z,21.67
2016-09-13T02:15:58.856Z,21.61
2016-09-13T02:16:58.841Z,21.75
2016-09-13T02:17:58.821Z,21.62
2016-09-13T02:18:58.804Z,21.64
2016-09-13T02:19:58.783Z,21.62
2016-09-13T02:20:58.767Z,21.64
2016-09-13T02:21:58.746Z,21.62
2016-09-13T02:22:58.727Z,21.64
2016-09-13T02:23:58.710Z,21.61
2016-09-13T02:24:58.774Z,21.66
2016-09-13T02:25:58.673Z,21.7
2016-09-13T02:26:58.656Z,21.64
2016-09-13T02:27:58.635Z,21.6
2016-09-13T02:28:58.620Z,21.64
2016-09-13T02:29:58.604Z,21.64
2016-09-13T02:30:58.583Z,21.62
2016-09-13T02:31:58.567Z,21.6
2016-09-13T02:32:58.544Z,21.58
2016-09-13T02:33:58.527Z,21.55
2016-09-13T02:34:58.511Z,21.55
2016-09-13T02:35:58.492Z,21.51
2016-09-13T02:36:58.474Z,21.55
2016-09-13T02:37:58.454Z,21.48
2016-09-13T02:38:58.439Z,21.51
2016-09-13T02:39:58.420Z,21.54
2016-09-13T02:40:58.694Z,21.48
2016-09-13T02:41:58.384Z,21.55
2016-09-13T02:42:58.361Z,21.57
2016-09-13T02:43:58.342Z,21.5
2016-09-13T02:44:58.325Z,21.58
2016-09-13T02:45:58.307Z,21.46
2016-09-13T02:46:58.287Z,21.51
2016-09-13T02:47:58.274Z,21.46
2016-09-13T02:48:58.254Z,21.45
2016-09-13T02:49:58.231Z,21.42
2016-09-13T02:50:58.515Z,21.39
2016-09-13T02:51:58.194Z,21.36
2016-09-13T02:52:58.177Z,21.4
2016-09-13T02:53:58.163Z,21.43
2016-09-13T02:54:58.143Z,21.39
2016-09-13T02:55:58.123Z,21.4
2016-09-13T02:56:58.105Z,21.42
2016-09-13T02:57:58.085Z,21.39
2016-09-13T02:58:58.068Z,21.4
2016-09-13T02:59:58.045Z,21.4
2016-09-13T03:00:58.031Z,21.37
2016-09-13T03:01:58.015Z,21.45
2016-09-13T03:02:57.988Z,21.36
2016-09-13T03:03:57.972Z,21.36
2016-09-13T03:04:57.957Z,21.39
2016-09-13T03:05:57.937Z,21.36
2016-09-13T03:06:57.917Z,21.37
2016-09-13T03:07:57.902Z,21.29
2016-09-13T03:08:57.881Z,21.33
2016-09-13T03:09:57.863Z,21.32
2016-09-13T03:10:57.844Z,21.32
2016-09-13T03:11:57.827Z,21.32
2016-09-13T03:12:57.806Z,21.36
2016-09-13T03:13:57.787Z,21.25
2016-09-13T03:14:57.771Z,21.33
2016-09-13T03:15:57.749Z,21.29
2016-09-13T03:16:57.733Z,21.25
2016-09-13T03:17:57.713Z,21.29
2016-09-13T03:18:57.705Z,21.3
2016-09-13T03:19:57.677Z,21.22
2016-09-13T03:20:57.661Z,21.25
2016-09-13T03:21:57.640Z,21.24
2016-09-13T03:22:57.620Z,21.2
2016-09-13T03:23:57.607Z,21.2
2016-09-13T03:24:57.583Z,21.18
2016-09-13T03:25:57.566Z,21.14
2016-09-13T03:26:57.545Z,21.17
2016-09-13T03:27:57.531Z,21.18
2016-09-13T03:28:57.511Z,21.18
2016-09-13T03:29:57.491Z,21.17
2016-09-13T03:30:57.474Z,21.12
2016-09-13T03:31:57.452Z,21.14
2016-09-13T03:32:57.437Z,21.17
2016-09-13T03:33:57.418Z,21.17
2016-09-13T03:34:57.396Z,21.2
2016-09-13T03:35:57.381Z,21.12
2016-09-13T03:36:57.367Z,21.18
2016-09-13T03:37:57.341Z,21.17
2016-09-13T03:38:57.323Z,21.17
2016-09-13T03:39:57.302Z,21.15
2016-09-13T03:40:57.287Z,21.14
2016-09-13T03:41:57.269Z,21.11
2016-09-13T03:42:57.247Z,21.17
2016-09-13T03:43:57.235Z,21.09
2016-09-13T03:44:57.211Z,21.15
2016-09-13T03:45:57.195Z,21.09
2016-09-13T03:46:57.177Z,21.06
2016-09-13T03:47:57.153Z,21.05
2016-09-13T03:48:57.135Z,21.07
2016-09-13T03:49:57.117Z,21.11
2016-09-13T03:50:57.097Z,21.03
2016-09-13T03:51:57.086Z,21.06
2016-09-13T03:52:57.065Z,21.07
2016-09-13T03:53:57.043Z,21.06
2016-09-13T03:54:57.025Z,21.09
2016-09-13T03:55:57.004Z,21.07
2016-09-13T03:56:56.989Z,21
2016-09-13T03:57:56.970Z,21.03
2016-09-13T03:58:56.947Z,21
2016-09-13T03:59:56.932Z,21.02
2016-09-13T04:00:56.911Z,21.02
2016-09-13T04:01:56.896Z,21.02
2016-09-13T04:02:56.872Z,21.02
2016-09-13T04:03:56.852Z,20.99
2016-09-13T04:04:56.847Z,20.99
2016-09-13T04:05:56.814Z,20.99
2016-09-13T04:06:56.801Z,21.05
2016-09-13T04:07:56.782Z,20.97
2016-09-13T04:08:56.765Z,21
2016-09-13T04:09:56.743Z,21.03
2016-09-13T04:10:56.725Z,20.97
2016-09-13T04:11:56.702Z,21.02
2016-09-13T04:12:56.686Z,21.02
2016-09-13T04:13:56.665Z,21.03
2016-09-13T04:14:56.649Z,21.02
2016-09-13T04:15:56.625Z,21.05
2016-09-13T04:16:56.607Z,21.02
2016-09-13T04:17:56.595Z,21
2016-09-13T04:18:56.574Z,21.07
2016-09-13T04:19:56.558Z,20.99
2016-09-13T04:20:56.539Z,21.02
2016-09-13T04:21:56.515Z,21.02
2016-09-13T04:22:56.496Z,21.06
2016-09-13T04:23:56.482Z,20.97
2016-09-13T04:24:56.459Z,21.02
2016-09-13T04:25:56.448Z,21.03
2016-09-13T04:26:56.422Z,21.09
2016-09-13T04:27:56.402Z,21
2016-09-13T04:28:56.389Z,21
2016-09-13T04:29:56.370Z,21.02
2016-09-13T04:30:56.350Z,21.06
2016-09-13T04:31:56.330Z,21.03
2016-09-13T04:32:56.312Z,21.09
2016-09-13T04:33:56.290Z,21.02
2016-09-13T04:34:56.271Z,21.03
2016-09-13T04:35:56.255Z,21.02
2016-09-13T04:36:56.234Z,21.09
2016-09-13T04:37:56.217Z,21.11
2016-09-13T04:38:56.198Z,21.11
2016-09-13T04:39:56.185Z,21.05
2016-09-13T04:40:56.164Z,21.05
2016-09-13T04:41:56.137Z,21.06
2016-09-13T04:42:56.122Z,21.06
2016-09-13T04:43:56.106Z,21.15
2016-09-13T04:44:56.083Z,21.14
2016-09-13T04:45:56.064Z,21.11
2016-09-13T04:46:56.048Z,21.11
2016-09-13T04:47:56.026Z,21.18
2016-09-13T04:48:56.005Z,21.11
2016-09-13T04:49:55.988Z,21.15
2016-09-13T04:50:55.971Z,21.12
2016-09-13T04:51:55.953Z,21.18
2016-09-13T04:52:55.934Z,21.2
2016-09-13T04:53:56.209Z,21.14
2016-09-13T04:54:55.897Z,21.15
2016-09-13T04:55:55.875Z,21.12
2016-09-13T04:56:55.861Z,21.14
2016-09-13T04:57:55.839Z,21.12
2016-09-13T04:58:55.817Z,21.18
2016-09-13T04:59:55.800Z,21.11
2016-09-13T05:00:55.784Z,21.11
2016-09-13T05:01:55.764Z,21.07
2016-09-13T05:02:55.743Z,21.03
2016-09-13T05:03:55.727Z,21.03
2016-09-13T05:04:55.708Z,21.14
2016-09-13T05:05:55.686Z,21.05
2016-09-13T05:06:55.670Z,20.99
2016-09-13T05:07:55.649Z,21.07
2016-09-13T05:08:55.638Z,21.07
2016-09-13T05:09:55.616Z,21.05
2016-09-13T05:10:55.594Z,21.09
2016-09-13T05:11:55.579Z,21.11
2016-09-13T05:12:55.556Z,21.02
2016-09-13T05:13:55.541Z,21.06
2016-09-13T05:14:55.519Z,21.11
2016-09-13T05:15:55.500Z,21.06
2016-09-13T05:16:55.479Z,21.09
2016-09-13T05:17:55.460Z,21.02
2016-09-13T05:18:55.441Z,21.09
2016-09-13T05:19:55.431Z,21.15
2016-09-13T05:20:55.409Z,21
2016-09-13T05:21:55.386Z,21.11
2016-09-13T05:22:55.370Z,20.97
2016-09-13T05:23:55.350Z,20.97
2016-09-13T05:24:55.338Z,20.96
2016-09-13T05:25:55.315Z,21
2016-09-13T05:26:55.291Z,21.02
2016-09-13T05:27:55.281Z,20.96
2016-09-13T05:28:55.256Z,21.03
2016-09-13T05:29:55.239Z,21.03
2016-09-13T05:30:55.215Z,20.96
2016-09-13T05:31:55.199Z,21
2016-09-13T05:32:55.181Z,21.02
2016-09-13T05:33:55.159Z,21.02
2016-09-13T05:34:55.147Z,21.02
2016-09-13T05:35:55.129Z,20.97
2016-09-13T05:36:55.108Z,20.99
2016-09-13T05:37:55.088Z,21.02
2016-09-13T05:38:55.072Z,21.11
2016-09-13T05:39:55.052Z,21.12
2016-09-13T05:40:55.040Z,20.99
2016-09-13T05:41:55.019Z,21.11
2016-09-13T05:42:54.999Z,21.15
2016-09-13T05:43:54.979Z,21.2
2016-09-13T05:44:54.954Z,21.14
2016-09-13T05:45:54.939Z,21.14
2016-09-13T05:46:54.917Z,21.21
2016-09-13T05:47:54.905Z,21.17
2016-09-13T05:48:54.882Z,21.25
2016-09-13T05:49:54.867Z,21.33
2016-09-13T05:50:54.843Z,21.32
2016-09-13T05:51:54.828Z,21.3
2016-09-13T05:52:54.818Z,21.45
2016-09-13T05:53:54.791Z,21.4
2016-09-13T05:54:54.777Z,21.46
2016-09-13T05:55:54.762Z,21.55
2016-09-13T05:56:55.224Z,21.54
2016-09-13T05:57:54.716Z,21.54
2016-09-13T05:58:54.699Z,21.6
2016-09-13T05:59:54.681Z,21.62
2016-09-13T06:00:54.663Z,21.64
2016-09-13T06:01:54.650Z,21.61
2016-09-13T06:02:54.630Z,21.64
2016-09-13T06:03:54.609Z,21.76
2016-09-13T06:04:54.593Z,21.72
2016-09-13T06:05:54.575Z,21.76
2016-09-13T06:06:54.559Z,21.76
2016-09-13T06:07:54.537Z,21.83
2016-09-13T06:08:54.526Z,21.88
2016-09-13T06:09:54.504Z,21.93
2016-09-13T06:10:54.484Z,21.92
2016-09-13T06:11:54.470Z,21.89
2016-09-13T06:12:54.451Z,21.92
2016-09-13T06:13:54.434Z,21.91
2016-09-13T06:14:54.415Z,22.06
2016-09-13T06:15:54.395Z,22.08
2016-09-13T06:16:54.377Z,21.99
2016-09-13T06:17:54.366Z,22.04
2016-09-13T06:18:54.343Z,22.06
2016-09-13T06:19:54.325Z,22.07
2016-09-13T06:20:54.610Z,22.13
2016-09-13T06:21:54.291Z,22.13
2016-09-13T06:22:54.271Z,22.14
2016-09-13T06:23:54.256Z,22.18
2016-09-13T06:24:54.235Z,22.13
2016-09-13T06:25:54.223Z,22.18
2016-09-13T06:26:54.202Z,22.26
2016-09-13T06:27:54.183Z,22.26
2016-09-13T06:28:54.166Z,22.25
2016-09-13T06:29:54.150Z,22.3
2016-09-13T06:30:54.132Z,22.36
2016-09-13T06:31:54.122Z,22.39
2016-09-13T06:32:54.100Z,22.44
2016-09-13T06:33:54.081Z,22.44
2016-09-13T06:34:54.062Z,22.47
2016-09-13T06:35:54.046Z,22.5
2016-09-13T06:36:54.033Z,22.45
2016-09-13T06:37:54.010Z,22.57
2016-09-13T06:38:53.996Z,22.6
2016-09-13T06:39:53.978Z,22.63
2016-09-13T06:40:53.959Z,22.69
2016-09-13T06:41:53.943Z,22.66
2016-09-13T06:42:53.922Z,22.73
2016-09-13T06:43:53.909Z,22.81
2016-09-13T06:44:53.904Z,22.83
2016-09-13T06:45:53.883Z,22.85
2016-09-13T06:46:53.856Z,22.91
2016-09-13T06:47:53.842Z,22.85
2016-09-13T06:48:53.835Z,22.98
2016-09-13T06:49:53.806Z,23.02
2016-09-13T06:50:53.806Z,22.99
2016-09-13T06:51:53.773Z,23.13
2016-09-13T06:52:53.759Z,23.15
2016-09-13T06:53:53.741Z,23.13
2016-09-13T06:54:53.723Z,23.32
2016-09-13T06:55:53.709Z,23.32
2016-09-13T06:56:53.687Z,23.36
2016-09-13T06:57:53.677Z,23.46
2016-09-13T06:58:53.659Z,23.46
2016-09-13T06:59:53.637Z,23.5
2016-09-13T07:00:53.628Z,23.58
2016-09-13T07:01:53.606Z,23.56
2016-09-13T07:02:53.600Z,23.65
2016-09-13T07:03:53.578Z,23.56
2016-09-13T07:04:53.557Z,23.68
2016-09-13T07:05:53.541Z,23.71
2016-09-13T07:06:53.529Z,23.68
2016-09-13T07:07:53.509Z,23.76
2016-09-13T07:08:53.492Z,23.84
2016-09-13T07:09:53.478Z,23.81
2016-09-13T07:10:53.460Z,23.92
2016-09-13T07:11:53.449Z,23.92
2016-09-13T07:12:53.427Z,23.99
2016-09-13T07:13:53.418Z,24.03
2016-09-13T07:14:53.398Z,24.02
2016-09-13T07:15:53.386Z,24.05
2016-09-13T07:16:53.365Z,24.03
2016-09-13T07:17:53.350Z,24.08
2016-09-13T07:18:53.333Z,24.2
2016-09-13T07:19:53.330Z,24.2
2016-09-13T07:20:53.303Z,24.29
2016-09-13T07:21:53.289Z,24.36
2016-09-13T07:22:53.272Z,24.3
2016-09-13T07:23:53.254Z,24.45
2016-09-13T07:24:53.238Z,24.42
2016-09-13T07:25:53.226Z,24.48
2016-09-13T07:26:53.208Z,24.51
2016-09-13T07:27:53.192Z,24.51
2016-09-13T07:28:53.172Z,24.63
2016-09-13T07:29:53.175Z,24.66
2016-09-13T07:30:53.734Z,24.73
2016-09-13T07:31:53.131Z,24.73
2016-09-13T07:32:53.118Z,24.81
2016-09-13T07:33:53.100Z,24.92
2016-09-13T07:34:53.086Z,24.91
2016-09-13T07:35:53.069Z,24.93
2016-09-13T07:36:53.053Z,24.99
2016-09-13T07:37:53.036Z,25.04
2016-09-13T07:38:53.075Z,25.13
2016-09-13T07:39:53.004Z,25.1
2016-09-13T07:40:52.991Z,25.17
2016-09-13T07:41:52.978Z,25.18
2016-09-13T07:42:52.964Z,25.26
2016-09-13T07:43:52.946Z,25.28
2016-09-13T07:44:52.938Z,25.44
2016-09-13T07:45:52.917Z,25.41
2016-09-13T07:46:52.901Z,25.41
2016-09-13T07:47:52.890Z,25.47
2016-09-13T07:48:52.868Z,25.54
2016-09-13T07:49:52.998Z,25.65
2016-09-13T07:50:52.839Z,25.6
2016-09-13T07:51:52.826Z,25.69
2016-09-13T07:52:52.816Z,25.77
2016-09-13T07:53:52.800Z,25.78
2016-09-13T07:54:52.786Z,25.88
2016-09-13T07:55:52.765Z,25.84
2016-09-13T07:56:52.765Z,25.85
2016-09-13T07:57:52.744Z,25.9
2016-09-13T07:58:52.725Z,25.99
2016-09-13T07:59:52.712Z,26.1
2016-09-13T08:00:52.697Z,26.07
2016-09-13T08:01:52.683Z,26.1
2016-09-13T08:02:52.666Z,26.13
2016-09-13T08:03:52.669Z,26.21
2016-09-13T08:04:52.641Z,26.28
2016-09-13T08:05:52.623Z,26.33
2016-09-13T08:06:52.615Z,26.36
2016-09-13T08:07:52.594Z,26.44
2016-09-13T08:08:52.584Z,26.43
2016-09-13T08:09:52.569Z,26.52
2016-09-13T08:10:52.557Z,26.59
2016-09-13T08:11:52.542Z,26.56
2016-09-13T08:12:52.531Z,26.66
2016-09-13T08:13:52.515Z,26.6
2016-09-13T08:14:52.497Z,26.75
2016-09-13T08:15:52.481Z,26.7
2016-09-13T08:16:52.774Z,26.74
2016-09-13T08:17:52.454Z,26.75
2016-09-13T08:18:52.450Z,26.89
2016-09-13T08:19:52.429Z,26.88
2016-09-13T08:20:52.411Z,26.96
2016-09-13T08:21:52.404Z,27.07
2016-09-13T08:22:52.384Z,27.11
2016-09-13T08:23:52.372Z,27
2016-09-13T08:24:52.362Z,27.14
2016-09-13T08:25:52.343Z,27.1
2016-09-13T08:26:52.332Z,27.17
2016-09-13T08:27:52.341Z,27.21
2016-09-13T08:28:53.155Z,27.2
2016-09-13T08:29:52.287Z,27.33
2016-09-13T08:30:52.292Z,27.3
2016-09-13T08:31:52.257Z,27.36
2016-09-13T08:32:52.251Z,27.37
2016-09-13T08:33:52.237Z,27.37
2016-09-13T08:34:52.217Z,27.52
2016-09-13T08:35:52.208Z,27.51
2016-09-13T08:36:52.197Z,27.65
2016-09-13T08:37:52.182Z,27.65
2016-09-13T08:38:52.167Z,27.7
2016-09-13T08:39:52.158Z,27.74
2016-09-13T08:40:52.157Z,27.82
2016-09-13T08:41:52.128Z,27.85
2016-09-13T08:42:52.115Z,27.87
2016-09-13T08:43:52.104Z,27.9
2016-09-13T08:44:52.092Z,28
2016-09-13T08:45:52.073Z,28
2016-09-13T08:46:52.065Z,28.02
2016-09-13T08:47:52.047Z,28.08
2016-09-13T08:48:52.037Z,28.12
2016-09-13T08:49:52.023Z,28.22
2016-09-13T08:50:52.009Z,28.26
2016-09-13T08:51:51.996Z,28.2
2016-09-13T08:52:51.988Z,28.32
2016-09-13T08:53:51.971Z,28.35
2016-09-13T08:54:51.966Z,28.38
2016-09-13T08:55:51.948Z,28.42
2016-09-13T08:56:51.931Z,28.47
2016-09-13T08:57:51.924Z,28.49
2016-09-13T08:58:51.912Z,28.56
2016-09-13T08:59:51.895Z,28.75
2016-09-13T09:00:51.881Z,28.66
2016-09-13T09:01:51.871Z,28.64
2016-09-13T09:02:51.854Z,28.7
2016-09-13T09:03:51.847Z,28.82
2016-09-13T09:04:51.830Z,28.86
2016-09-13T09:05:51.814Z,28.88
2016-09-13T09:06:51.804Z,28.82
2016-09-13T09:07:51.792Z,28.78
2016-09-13T09:08:51.778Z,28.79
2016-09-13T09:09:51.768Z,29.02
2016-09-13T09:10:51.754Z,28.98
2016-09-13T09:11:51.740Z,29.05
2016-09-13T09:12:51.727Z,29.05
2016-09-13T09:13:51.718Z,29.12
2016-09-13T09:14:51.704Z,29.19
2016-09-13T09:15:51.708Z,29.2
2016-09-13T09:16:51.681Z,29.2
2016-09-13T09:17:51.668Z,29.22
2016-09-13T09:18:51.655Z,29.27
2016-09-13T09:19:51.641Z,29.31
2016-09-13T09:20:51.633Z,29.38
2016-09-13T09:21:51.619Z,29.42
2016-09-13T09:22:51.605Z,29.47
2016-09-13T09:23:51.592Z,29.49
2016-09-13T09:24:51.581Z,29.51
2016-09-13T09:25:51.613Z,29.56
2016-09-13T09:26:51.557Z,29.54
2016-09-13T09:27:51.543Z,29.63
2016-09-13T09:28:51.536Z,29.63
2016-09-13T09:29:51.521Z,29.61
2016-09-13T09:30:51.515Z,29.71
2016-09-13T09:31:51.497Z,29.75
2016-09-13T09:32:51.635Z,29.71
2016-09-13T09:33:51.473Z,29.79
2016-09-13T09:34:51.462Z,29.87
2016-09-13T09:35:51.452Z,29.87
2016-09-13T09:36:51.437Z,29.88
2016-09-13T09:37:51.426Z,29.97
2016-09-13T09:38:51.421Z,30.03
2016-09-13T09:39:51.404Z,29.95
2016-09-13T09:40:51.392Z,30.18
2016-09-13T09:41:51.379Z,30.13
2016-09-13T09:42:51.367Z,30.19
2016-09-13T09:43:51.357Z,30.23
2016-09-13T09:44:51.345Z,30.19
2016-09-13T09:45:51.332Z,30.23
2016-09-13T09:46:51.321Z,30.3
2016-09-13T09:47:51.320Z,30.28
2016-09-13T09:48:51.300Z,30.31
2016-09-13T09:49:51.321Z,30.25
2016-09-13T09:50:51.278Z,30.37
2016-09-13T09:51:51.263Z,30.39
2016-09-13T09:52:51.252Z,30.47
2016-09-13T09:53:51.242Z,30.46
2016-09-13T09:54:51.225Z,30.46
2016-09-13T09:55:51.216Z,30.59
2016-09-13T09:56:51.209Z,30.54
2016-09-13T09:57:51.196Z,30.69
2016-09-13T09:58:51.757Z,30.62
2016-09-13T09:59:51.176Z,30.66
2016-09-13T10:00:51.456Z,30.66
2016-09-13T10:01:51.150Z,30.69
2016-09-13T10:02:51.151Z,30.62
2016-09-13T10:03:51.122Z,30.68
2016-09-13T10:04:51.115Z,30.65
2016-09-13T10:05:51.107Z,30.66
2016-09-13T10:06:51.096Z,30.75
2016-09-13T10:07:51.082Z,30.88
2016-09-13T10:08:51.071Z,30.8
2016-09-13T10:09:51.062Z,30.9
2016-09-13T10:10:51.054Z,30.91
2016-09-13T10:11:51.036Z,31.02
2016-09-13T10:12:51.025Z,31.02
2016-09-13T10:13:51.022Z,30.97
2016-09-13T10:14:51.004Z,31.07
2016-09-13T10:15:50.993Z,31.1
2016-09-13T10:16:50.986Z,31.14
2016-09-13T10:17:50.965Z,31.17
2016-09-13T10:18:50.961Z,31.15
2016-09-13T10:19:50.948Z,31.18
2016-09-13T10:20:50.936Z,31.29
2016-09-13T10:21:50.925Z,31.22
2016-09-13T10:22:50.918Z,31.39
2016-09-13T10:23:50.908Z,31.36
2016-09-13T10:24:50.894Z,31.34
2016-09-13T10:25:50.899Z,31.42
2016-09-13T10:26:50.870Z,31.42
2016-09-13T10:27:50.863Z,31.4
2016-09-13T10:28:50.846Z,31.51
2016-09-13T10:29:50.841Z,31.51
2016-09-13T10:30:50.829Z,31.51
2016-09-13T10:31:50.819Z,31.49
2016-09-13T10:32:50.807Z,31.52
2016-09-13T10:33:50.797Z,31.55
2016-09-13T10:34:50.785Z,31.59
2016-09-13T10:35:50.776Z,31.58
2016-09-13T10:36:50.767Z,31.59
2016-09-13T10:37:50.754Z,31.61
2016-09-13T10:38:50.743Z,31.65
2016-09-13T10:39:50.731Z,31.65
2016-09-13T10:40:50.725Z,31.69
2016-09-13T10:41:50.716Z,31.77
2016-09-13T10:42:50.703Z,31.71
2016-09-13T10:43:50.691Z,31.81
2016-09-13T10:44:51.359Z,31.94
2016-09-13T10:45:50.672Z,31.87
2016-09-13T10:46:50.658Z,31.96
2016-09-13T10:47:50.651Z,31.92
2016-09-13T10:48:50.637Z,31.97
2016-09-13T10:49:50.628Z,31.93
2016-09-13T10:50:50.620Z,31.99
2016-09-13T10:51:50.909Z,31.99
2016-09-13T10:52:50.599Z,32.04
2016-09-13T10:53:50.588Z,32
2016-09-13T10:54:50.577Z,32.09
2016-09-13T10:55:50.565Z,32.07
2016-09-13T10:56:50.560Z,32.11
2016-09-13T10:57:50.546Z,32.14
2016-09-13T10:58:50.535Z,32.14
2016-09-13T10:59:50.527Z,32.18
2016-09-13T11:00:50.683Z,32.22
2016-09-13T11:01:50.505Z,32.3
2016-09-13T11:02:50.493Z,32.22
2016-09-13T11:03:50.486Z,32.26
2016-09-13T11:04:50.474Z,32.3
2016-09-13T11:05:50.466Z,32.33
2016-09-13T11:06:50.456Z,32.36
2016-09-13T11:07:50.446Z,32.43
2016-09-13T11:08:50.434Z,32.45
2016-09-13T11:09:50.425Z,32.38
2016-09-13T11:10:50.416Z,32.41
2016-09-13T11:11:50.402Z,32.48
2016-09-13T11:12:50.396Z,32.45
2016-09-13T11:13:50.383Z,32.41
2016-09-13T11:14:50.376Z,32.38
2016-09-13T11:15:50.365Z,32.38
2016-09-13T11:16:50.356Z,32.55
2016-09-13T11:17:50.347Z,32.51
2016-09-13T11:18:50.337Z,32.49
2016-09-13T11:19:50.323Z,32.55
2016-09-13T11:20:50.313Z,32.56
2016-09-13T11:21:50.306Z,32.55
2016-09-13T11:22:50.293Z,32.56
2016-09-13T11:23:50.286Z,32.6
2016-09-13T11:24:50.275Z,32.59
2016-09-13T11:25:50.268Z,32.67
2016-09-13T11:26:50.258Z,32.78
2016-09-13T11:27:50.241Z,32.7
2016-09-13T11:28:50.235Z,32.78
2016-09-13T11:29:50.221Z,32.8
2016-09-13T11:30:50.214Z,32.8
2016-09-13T11:31:50.206Z,32.82
2016-09-13T11:32:50.195Z,32.73
2016-09-13T11:33:50.187Z,32.82
2016-09-13T11:34:50.174Z,32.89
2016-09-13T11:35:50.169Z,32.93
2016-09-13T11:36:50.158Z,32.92
2016-09-13T11:37:50.151Z,32.86
2016-09-13T11:38:50.433Z,32.89
2016-09-13T11:39:50.129Z,32.87
2016-09-13T11:40:50.119Z,33.08
2016-09-13T11:41:50.109Z,33.05
2016-09-13T11:42:50.095Z,33.05
2016-09-13T11:43:50.096Z,33.09
2016-09-13T11:44:50.079Z,33.12
2016-09-13T11:45:50.073Z,33.17
2016-09-13T11:46:50.060Z,33.15
2016-09-13T11:47:50.049Z,33.15
2016-09-13T11:48:50.042Z,33.11
2016-09-13T11:49:50.031Z,33.14
2016-09-13T11:50:50.023Z,33.15
2016-09-13T11:51:50.015Z,33.15
2016-09-13T11:52:50.003Z,33.23
2016-09-13T11:53:49.994Z,33.17
2016-09-13T11:54:49.984Z,33.17
2016-09-13T11:55:49.972Z,33.19
2016-09-13T11:56:49.971Z,33.27
2016-09-13T11:57:49.956Z,33.27
2016-09-13T11:58:49.957Z,33.3
2016-09-13T11:59:49.932Z,33.39
2016-09-13T12:00:49.926Z,33.36
2016-09-13T12:01:49.917Z,33.39
2016-09-13T12:02:49.906Z,33.42
2016-09-13T12:03:49.901Z,33.46
2016-09-13T12:04:50.185Z,33.58
2016-09-13T12:05:49.879Z,33.53
2016-09-13T12:06:49.867Z,33.62
2016-09-13T12:07:49.858Z,33.58
2016-09-13T12:08:49.855Z,33.64
2016-09-13T12:09:49.842Z,33.59
2016-09-13T12:10:49.834Z,33.67
2016-09-13T12:11:49.823Z,33.69
2016-09-13T12:12:49.815Z,33.76
2016-09-13T12:13:49.805Z,33.79
2016-09-13T12:14:49.798Z,33.77
2016-09-13T12:15:49.792Z,33.87
2016-09-13T12:16:49.778Z,33.9
2016-09-13T12:17:49.770Z,33.87
2016-09-13T12:18:49.760Z,33.9
2016-09-13T12:19:49.750Z,33.95
2016-09-13T12:20:49.742Z,33.99
2016-09-13T12:21:49.732Z,33.98
2016-09-13T12:22:49.722Z,33.9
2016-09-13T12:23:49.728Z,33.95
2016-09-13T12:24:49.711Z,33.98
2016-09-13T12:25:49.696Z,33.94
2016-09-13T12:26:49.690Z,33.96
2016-09-13T12:27:49.678Z,33.92
2016-09-13T12:28:49.728Z,33.9
2016-09-13T12:29:49.660Z,33.94
2016-09-13T12:30:49.653Z,33.92
2016-09-13T12:31:49.643Z,34.01
2016-09-13T12:32:49.636Z,34.02
2016-09-13T12:33:49.626Z,34.08
2016-09-13T12:34:49.619Z,34.05
2016-09-13T12:35:49.610Z,34.08
2016-09-13T12:36:49.603Z,34.06
2016-09-13T12:37:50.409Z,34.13
2016-09-13T12:38:49.800Z,34.06
2016-09-13T12:39:49.574Z,34.13
2016-09-13T12:40:49.571Z,34.24
2016-09-13T12:41:49.561Z,34.25
2016-09-13T12:42:49.547Z,34.29
2016-09-13T12:43:49.543Z,34.2
2016-09-13T12:44:49.532Z,34.16
2016-09-13T12:45:49.524Z,34.2
2016-09-13T12:46:49.519Z,34.21
2016-09-13T12:47:49.595Z,34.23
2016-09-13T12:48:49.501Z,34.25
2016-09-13T12:49:49.504Z,34.29
2016-09-13T12:50:49.505Z,34.27
2016-09-13T12:51:49.471Z,34.18
2016-09-13T12:52:49.468Z,34.2
2016-09-13T12:53:49.461Z,34.21
2016-09-13T12:54:49.447Z,34.18
2016-09-13T12:55:49.445Z,34.18